createdAt,value
2017-08-25T00:00:19.640Z,0
2017-08-25T00:01:20.291Z,0
2017-08-25T00:02:20.322Z,0
2017-08-25T00:03:20.619Z,0
2017-08-25T00:04:20.272Z,0
2017-08-25T00:05:20.283Z,0
2017-08-25T00:07:19.595Z,0
2017-08-25T00:08:19.920Z,0
2017-08-25T00:09:19.926Z,0
2017-08-25T00:10:20.263Z,0
2017-08-25T00:11:19.896Z,0
2017-08-25T00:12:19.906Z,0
2017-08-25T00:13:19.906Z,0
2017-08-25T00:14:20.213Z,0
2017-08-25T00:15:19.888Z,0
2017-08-25T00:16:19.865Z,0
2017-08-25T00:17:19.860Z,0
2017-08-25T00:18:19.856Z,0
2017-08-25T00:19:19.519Z,0
2017-08-25T00:20:19.871Z,0
2017-08-25T00:21:20.179Z,0
2017-08-25T00:22:19.836Z,0
2017-08-25T00:23:19.863Z,0
2017-08-25T00:24:20.166Z,0
2017-08-25T00:25:20.133Z,0
2017-08-25T00:26:20.177Z,0
2017-08-25T00:27:20.143Z,0
2017-08-25T00:28:19.808Z,0
2017-08-25T00:29:20.446Z,0
2017-08-25T00:30:19.451Z,0
2017-08-25T00:31:20.096Z,0
2017-08-25T00:32:19.433Z,0
2017-08-25T00:33:19.757Z,0
2017-08-25T00:34:19.748Z,0
2017-08-25T00:35:19.745Z,0
2017-08-25T00:36:19.408Z,0
2017-08-25T00:37:20.055Z,0
2017-08-25T00:38:19.737Z,0
2017-08-25T00:39:19.744Z,0
2017-08-25T00:40:19.390Z,0
2017-08-25T00:41:19.710Z,0
2017-08-25T00:42:19.695Z,0
2017-08-25T00:43:20.023Z,0
2017-08-25T00:44:19.683Z,0
2017-08-25T00:45:19.678Z,0
2017-08-25T00:46:19.673Z,0
2017-08-25T00:47:19.991Z,0
2017-08-25T00:48:19.334Z,0
2017-08-25T00:49:19.653Z,0
2017-08-25T00:50:19.978Z,0
2017-08-25T00:51:20.297Z,0
2017-08-25T00:52:19.630Z,0
2017-08-25T00:53:19.638Z,0
2017-08-25T00:54:19.292Z,0
2017-08-25T00:55:19.284Z,0
2017-08-25T00:56:19.944Z,0
2017-08-25T00:57:19.957Z,0
2017-08-25T00:58:19.589Z,0
2017-08-25T00:59:19.920Z,0
2017-08-25T01:00:19.248Z,0
2017-08-25T01:01:19.259Z,0
2017-08-25T01:02:19.562Z,0
2017-08-25T01:03:19.896Z,0
2017-08-25T01:04:19.567Z,0
2017-08-25T01:05:19.543Z,0
2017-08-25T01:06:19.214Z,0
2017-08-25T01:07:19.533Z,0
2017-08-25T01:08:19.865Z,0
2017-08-25T01:09:19.863Z,0
2017-08-25T01:10:19.517Z,0
2017-08-25T01:11:19.837Z,0
2017-08-25T01:12:19.498Z,0
2017-08-25T01:13:19.835Z,0
2017-08-25T01:14:19.843Z,0
2017-08-25T01:15:19.500Z,0
2017-08-25T01:16:20.224Z,0
2017-08-25T01:17:19.500Z,0
2017-08-25T01:18:19.478Z,0
2017-08-25T01:19:19.448Z,0
2017-08-25T01:20:19.788Z,0
2017-08-25T01:21:19.127Z,0
2017-08-25T01:22:19.759Z,0
2017-08-25T01:23:19.094Z,0
2017-08-25T01:24:19.413Z,0
2017-08-25T01:25:19.413Z,0
2017-08-25T01:26:19.404Z,0
2017-08-25T01:27:19.064Z,0
2017-08-25T01:28:19.415Z,0
2017-08-25T01:29:19.381Z,0
2017-08-25T01:30:19.400Z,0
2017-08-25T01:31:19.369Z,0
2017-08-25T01:32:19.033Z,0
2017-08-25T01:33:19.681Z,0
2017-08-25T01:34:19.678Z,0
2017-08-25T01:35:19.365Z,0
2017-08-25T01:36:20.035Z,0
2017-08-25T01:37:19.324Z,0
2017-08-25T01:38:19.645Z,0
2017-08-25T01:39:19.338Z,0
2017-08-25T01:40:18.977Z,0
2017-08-25T01:41:19.305Z,0
2017-08-25T01:42:19.312Z,0
2017-08-25T01:43:18.959Z,0
2017-08-25T01:44:19.659Z,0
2017-08-25T01:45:18.942Z,0
2017-08-25T01:46:19.609Z,0
2017-08-25T01:47:19.584Z,0
2017-08-25T01:48:18.921Z,0
2017-08-25T01:49:19.276Z,0
2017-08-25T01:50:19.237Z,0
2017-08-25T01:51:19.247Z,0
2017-08-25T01:52:19.581Z,0
2017-08-25T01:53:18.908Z,0
2017-08-25T01:54:19.548Z,0
2017-08-25T01:55:19.200Z,0
2017-08-25T01:56:18.875Z,0
2017-08-25T01:57:19.204Z,0
2017-08-25T01:58:18.851Z,0
2017-08-25T01:59:19.172Z,0
2017-08-25T02:00:19.162Z,0
2017-08-25T02:01:19.162Z,0
2017-08-25T02:02:19.160Z,0
2017-08-25T02:03:19.142Z,0
2017-08-25T02:04:19.136Z,0
2017-08-25T02:05:19.464Z,0
2017-08-25T02:06:19.131Z,0
2017-08-25T02:07:19.139Z,0
2017-08-25T02:08:18.781Z,0
2017-08-25T02:09:18.802Z,0
2017-08-25T02:10:19.102Z,0
2017-08-25T02:11:18.760Z,0
2017-08-25T02:12:18.753Z,0
2017-08-25T02:13:19.091Z,0
2017-08-25T02:14:19.089Z,0
2017-08-25T02:15:19.395Z,0
2017-08-25T02:16:19.379Z,0
2017-08-25T02:17:19.447Z,0
2017-08-25T02:18:19.037Z,0
2017-08-25T02:19:19.038Z,0
2017-08-25T02:20:19.692Z,0
2017-08-25T02:21:18.711Z,0
2017-08-25T02:22:19.337Z,0
2017-08-25T02:23:19.026Z,0
2017-08-25T02:24:18.995Z,0
2017-08-25T02:25:19.668Z,0
2017-08-25T02:26:19.309Z,0
2017-08-25T02:27:18.997Z,0
2017-08-25T02:28:18.975Z,0
2017-08-25T02:29:18.650Z,0
2017-08-25T02:30:18.624Z,0
2017-08-25T02:31:18.977Z,0
2017-08-25T02:32:18.935Z,0
2017-08-25T02:33:18.944Z,0
2017-08-25T02:34:18.936Z,0
2017-08-25T02:35:19.254Z,0
2017-08-25T02:36:18.909Z,0
2017-08-25T02:37:18.906Z,0
2017-08-25T02:38:18.896Z,0
2017-08-25T02:39:19.247Z,0
2017-08-25T02:40:19.207Z,0
2017-08-25T02:41:18.546Z,0
2017-08-25T02:42:19.195Z,0
2017-08-25T02:43:18.548Z,0
2017-08-25T02:44:18.852Z,0
2017-08-25T02:45:18.516Z,0
2017-08-25T02:46:19.191Z,0
2017-08-25T02:47:19.158Z,0
2017-08-25T02:48:18.834Z,0
2017-08-25T02:49:19.148Z,0
2017-08-25T02:50:19.136Z,0
2017-08-25T02:51:18.804Z,0
2017-08-25T02:52:18.791Z,0
2017-08-25T02:53:19.120Z,0
2017-08-25T02:54:18.802Z,0
2017-08-25T02:55:18.769Z,0
2017-08-25T02:56:18.782Z,0
2017-08-25T02:57:18.756Z,0
2017-08-25T02:58:18.758Z,0
2017-08-25T02:59:19.068Z,0
2017-08-25T03:00:18.764Z,0
2017-08-25T03:01:18.751Z,0
2017-08-25T03:02:18.717Z,0
2017-08-25T03:03:18.718Z,0
2017-08-25T03:04:18.716Z,0
2017-08-25T03:05:18.697Z,0
2017-08-25T03:06:19.042Z,0
2017-08-25T03:07:18.704Z,0
2017-08-25T03:08:19.386Z,0
2017-08-25T03:09:18.682Z,0
2017-08-25T03:10:18.336Z,0
2017-08-25T03:11:18.982Z,0
2017-08-25T03:12:18.353Z,0
2017-08-25T03:13:18.662Z,0
2017-08-25T03:14:18.327Z,0
2017-08-25T03:15:18.295Z,0
2017-08-25T03:16:18.615Z,0
2017-08-25T03:17:18.301Z,0
2017-08-25T03:18:18.601Z,0
2017-08-25T03:19:18.933Z,0
2017-08-25T03:20:18.927Z,0
2017-08-25T03:21:18.585Z,0
2017-08-25T03:22:18.256Z,0
2017-08-25T03:23:19.239Z,0
2017-08-25T03:24:18.231Z,0
2017-08-25T03:25:18.222Z,0
2017-08-25T03:26:18.229Z,0
2017-08-25T03:27:18.531Z,0
2017-08-25T03:28:18.535Z,0
2017-08-25T03:29:19.197Z,0
2017-08-25T03:30:18.519Z,0
2017-08-25T03:31:18.173Z,0
2017-08-25T03:32:18.497Z,0
2017-08-25T03:33:18.816Z,0
2017-08-25T03:34:18.503Z,0
2017-08-25T03:35:18.485Z,0
2017-08-25T03:36:18.466Z,0
2017-08-25T03:37:18.823Z,0
2017-08-25T03:38:18.123Z,0
2017-08-25T03:39:18.786Z,0
2017-08-25T03:40:18.446Z,0
2017-08-25T03:41:18.776Z,0
2017-08-25T03:42:18.096Z,0
2017-08-25T03:43:19.071Z,0
2017-08-25T03:44:18.095Z,4
2017-08-25T03:45:18.396Z,4
2017-08-25T03:46:18.389Z,4
2017-08-25T03:47:18.718Z,0
2017-08-25T03:48:18.075Z,4
2017-08-25T03:49:18.041Z,4
2017-08-25T03:50:18.391Z,8
2017-08-25T03:51:19.009Z,4
2017-08-25T03:52:18.031Z,8
2017-08-25T03:53:18.679Z,8
2017-08-25T03:54:18.335Z,12
2017-08-25T03:55:18.327Z,12
2017-08-25T03:56:18.016Z,12
2017-08-25T03:57:18.310Z,16
2017-08-25T03:58:18.630Z,16
2017-08-25T03:59:18.326Z,24
2017-08-25T04:00:17.981Z,24
2017-08-25T04:01:18.605Z,28
2017-08-25T04:02:18.617Z,36
2017-08-25T04:03:18.261Z,40
2017-08-25T04:04:18.254Z,48
2017-08-25T04:05:18.603Z,52
2017-08-25T04:06:17.920Z,60
2017-08-25T04:07:18.560Z,64
2017-08-25T04:08:17.899Z,72
2017-08-25T04:09:18.592Z,80
2017-08-25T04:10:18.209Z,88
2017-08-25T04:11:18.536Z,92
2017-08-25T04:12:18.221Z,92
2017-08-25T04:13:18.529Z,100
2017-08-25T04:14:18.190Z,108
2017-08-25T04:15:18.502Z,128
2017-08-25T04:16:17.839Z,152
2017-08-25T04:17:18.187Z,184
2017-08-25T04:18:17.824Z,216
2017-08-25T04:19:18.147Z,252
2017-08-25T04:20:18.161Z,280
2017-08-25T04:21:17.801Z,312
2017-08-25T04:22:18.475Z,336
2017-08-25T04:23:18.114Z,364
2017-08-25T04:24:18.109Z,388
2017-08-25T04:25:18.429Z,396
2017-08-25T04:26:18.098Z,408
2017-08-25T04:27:17.754Z,436
2017-08-25T04:28:17.751Z,484
2017-08-25T04:29:18.071Z,516
2017-08-25T04:30:18.427Z,536
2017-08-25T04:31:18.055Z,556
2017-08-25T04:32:18.063Z,600
2017-08-25T04:33:18.378Z,660
2017-08-25T04:34:18.057Z,732
2017-08-25T04:35:17.700Z,812
2017-08-25T04:36:18.039Z,876
2017-08-25T04:37:18.347Z,920
2017-08-25T04:38:18.003Z,960
2017-08-25T04:39:18.002Z,1024
2017-08-25T04:40:18.318Z,1104
2017-08-25T04:41:18.651Z,1192
2017-08-25T04:42:18.303Z,1260
2017-08-25T04:43:17.970Z,1324
2017-08-25T04:44:17.965Z,1416
2017-08-25T04:45:17.974Z,1504
2017-08-25T04:46:17.971Z,1576
2017-08-25T04:47:18.286Z,1592
2017-08-25T04:48:18.265Z,1576
2017-08-25T04:49:18.259Z,1612
2017-08-25T04:50:17.924Z,1696
2017-08-25T04:51:17.913Z,1776
2017-08-25T04:52:18.251Z,1896
2017-08-25T04:53:17.578Z,1964
2017-08-25T04:54:17.559Z,1992
2017-08-25T04:55:17.553Z,1964
2017-08-25T04:56:17.549Z,1908
2017-08-25T04:57:17.555Z,1872
2017-08-25T04:58:17.556Z,1860
2017-08-25T04:59:18.207Z,1864
2017-08-25T05:00:17.856Z,1904
2017-08-25T05:01:17.840Z,1964
2017-08-25T05:02:17.851Z,2020
2017-08-25T05:03:17.836Z,2080
2017-08-25T05:04:17.829Z,2140
2017-08-25T05:05:17.497Z,2188
2017-08-25T05:06:17.497Z,2228
2017-08-25T05:07:18.480Z,2268
2017-08-25T05:08:18.126Z,2292
2017-08-25T05:09:17.785Z,2316
2017-08-25T05:10:18.126Z,2340
2017-08-25T05:11:17.776Z,2380
2017-08-25T05:12:17.436Z,2468
2017-08-25T05:13:18.094Z,2588
2017-08-25T05:14:18.086Z,2716
2017-08-25T05:15:17.746Z,2884
2017-08-25T05:16:18.068Z,3096
2017-08-25T05:17:17.734Z,3280
2017-08-25T05:18:17.736Z,3452
2017-08-25T05:19:18.047Z,3596
2017-08-25T05:20:17.714Z,3720
2017-08-25T05:21:17.739Z,3776
2017-08-25T05:22:17.373Z,3820
2017-08-25T05:23:17.367Z,3944
2017-08-25T05:24:18.037Z,3976
2017-08-25T05:25:17.688Z,4268
2017-08-25T05:26:18.023Z,4304
2017-08-25T05:27:17.665Z,4340
2017-08-25T05:28:17.989Z,4268
2017-08-25T05:29:17.652Z,4212
2017-08-25T05:30:17.979Z,4220
2017-08-25T05:31:17.981Z,4188
2017-08-25T05:32:17.637Z,4164
2017-08-25T05:33:17.958Z,4188
2017-08-25T05:34:17.294Z,4220
2017-08-25T05:35:17.985Z,4288
2017-08-25T05:36:17.291Z,4360
2017-08-25T05:37:17.968Z,4460
2017-08-25T05:38:17.315Z,4588
2017-08-25T05:39:17.286Z,4748
2017-08-25T05:40:17.298Z,4832
2017-08-25T05:41:17.616Z,4964
2017-08-25T05:42:17.364Z,5016
2017-08-25T05:43:18.005Z,5024
2017-08-25T05:44:18.583Z,5040
2017-08-25T05:45:17.787Z,5104
2017-08-25T05:46:18.501Z,5216
2017-08-25T05:47:17.359Z,5348
2017-08-25T05:48:17.720Z,5500
2017-08-25T05:49:17.288Z,5740
2017-08-25T05:50:17.365Z,6144
2017-08-25T05:51:18.431Z,6568
2017-08-25T05:52:17.847Z,7008
2017-08-25T05:53:17.747Z,7152
2017-08-25T05:54:17.610Z,6976
2017-08-25T05:55:17.507Z,6688
2017-08-25T05:56:17.498Z,6360
2017-08-25T05:57:17.494Z,6072
2017-08-25T05:58:17.833Z,5492
2017-08-25T05:59:17.488Z,4816
2017-08-25T06:00:17.812Z,4352
2017-08-25T06:01:17.499Z,4248
2017-08-25T06:02:18.122Z,4464
2017-08-25T06:03:17.804Z,4676
2017-08-25T06:04:17.466Z,5208
2017-08-25T06:05:17.476Z,5780
2017-08-25T06:06:17.451Z,6460
2017-08-25T06:07:17.463Z,6264
2017-08-25T06:08:17.130Z,5760
2017-08-25T06:09:17.449Z,5320
2017-08-25T06:10:17.753Z,5356
2017-08-25T06:11:17.101Z,5728
2017-08-25T06:12:17.419Z,5720
2017-08-25T06:13:17.086Z,5520
2017-08-25T06:14:17.768Z,5856
2017-08-25T06:15:17.410Z,6324
2017-08-25T06:16:17.400Z,6692
2017-08-25T06:17:17.393Z,6808
2017-08-25T06:18:17.070Z,7080
2017-08-25T06:19:17.415Z,7132
2017-08-25T06:20:17.387Z,7164
2017-08-25T06:21:17.108Z,7288
2017-08-25T06:22:17.058Z,7384
2017-08-25T06:23:17.721Z,6924
2017-08-25T06:24:17.376Z,6908
2017-08-25T06:25:17.361Z,7352
2017-08-25T06:26:17.353Z,7932
2017-08-25T06:27:17.038Z,8384
2017-08-25T06:28:17.368Z,9080
2017-08-25T06:29:17.410Z,9116
2017-08-25T06:30:17.344Z,8320
2017-08-25T06:31:17.016Z,8032
2017-08-25T06:32:17.356Z,8664
2017-08-25T06:33:17.024Z,7948
2017-08-25T06:34:17.992Z,6608
2017-08-25T06:35:17.323Z,5824
2017-08-25T06:36:17.327Z,5976
2017-08-25T06:37:17.337Z,6700
2017-08-25T06:38:17.312Z,6944
2017-08-25T06:39:17.314Z,6200
2017-08-25T06:40:16.974Z,6356
2017-08-25T06:41:17.298Z,6404
2017-08-25T06:42:17.030Z,6600
2017-08-25T06:43:16.981Z,6932
2017-08-25T06:44:16.976Z,7180
2017-08-25T06:45:17.624Z,8424
2017-08-25T06:46:16.973Z,7612
2017-08-25T06:47:17.612Z,13972
2017-08-25T06:48:17.351Z,8040
2017-08-25T06:49:17.289Z,17696
2017-08-25T06:50:16.946Z,17088
2017-08-25T06:51:17.286Z,15708
2017-08-25T06:52:17.927Z,8484
2017-08-25T06:53:17.287Z,10848
2017-08-25T06:54:16.934Z,22048
2017-08-25T06:55:17.270Z,21216
2017-08-25T06:56:17.257Z,21664
2017-08-25T06:57:17.295Z,18752
2017-08-25T06:58:17.262Z,12960
2017-08-25T06:59:17.273Z,18848
2017-08-25T07:00:17.939Z,17696
2017-08-25T07:01:16.920Z,21792
2017-08-25T07:02:17.258Z,23328
2017-08-25T07:03:17.248Z,12672
2017-08-25T07:04:17.262Z,8500
2017-08-25T07:05:17.263Z,10016
2017-08-25T07:06:16.917Z,8520
2017-08-25T07:07:17.274Z,8812
2017-08-25T07:08:17.572Z,16360
2017-08-25T07:09:16.916Z,10640
2017-08-25T07:10:17.248Z,12452
2017-08-25T07:11:17.571Z,9876
2017-08-25T07:12:16.950Z,8464
2017-08-25T07:13:17.262Z,8756
2017-08-25T07:14:17.591Z,8896
2017-08-25T07:15:17.251Z,8404
2017-08-25T07:16:17.247Z,8024
2017-08-25T07:17:17.265Z,8344
2017-08-25T07:18:17.267Z,8484
2017-08-25T07:19:16.909Z,9016
2017-08-25T07:20:17.240Z,9384
2017-08-25T07:21:17.254Z,9352
2017-08-25T07:22:17.586Z,8888
2017-08-25T07:23:16.909Z,8804
2017-08-25T07:24:17.234Z,8840
2017-08-25T07:25:17.235Z,9092
2017-08-25T07:26:17.264Z,9500
2017-08-25T07:27:16.916Z,9724
2017-08-25T07:28:17.590Z,10456
2017-08-25T07:29:17.561Z,11188
2017-08-25T07:30:16.908Z,11900
2017-08-25T07:31:17.239Z,12876
2017-08-25T07:32:16.928Z,13140
2017-08-25T07:33:16.919Z,12352
2017-08-25T07:34:17.624Z,11408
2017-08-25T07:35:16.901Z,10972
2017-08-25T07:36:17.571Z,11108
2017-08-25T07:37:17.226Z,11504
2017-08-25T07:38:17.253Z,11408
2017-08-25T07:39:17.588Z,11292
2017-08-25T07:40:17.224Z,11632
2017-08-25T07:41:17.225Z,12380
2017-08-25T07:42:17.557Z,12264
2017-08-25T07:43:17.226Z,12248
2017-08-25T07:44:16.916Z,12124
2017-08-25T07:45:16.893Z,11828
2017-08-25T07:46:17.915Z,11640
2017-08-25T07:47:17.560Z,11584
2017-08-25T07:48:17.225Z,11660
2017-08-25T07:49:16.926Z,11496
2017-08-25T07:50:16.922Z,12304
2017-08-25T07:51:16.897Z,12996
2017-08-25T07:52:16.899Z,13744
2017-08-25T07:53:16.895Z,13072
2017-08-25T07:54:16.902Z,12956
2017-08-25T07:55:17.286Z,12668
2017-08-25T07:56:16.909Z,12160
2017-08-25T07:57:17.227Z,11960
2017-08-25T07:58:17.579Z,11416
2017-08-25T07:59:16.913Z,11128
2017-08-25T08:00:17.246Z,10460
2017-08-25T08:01:17.558Z,9900
2017-08-25T08:02:17.223Z,10072
2017-08-25T08:03:16.898Z,10680
2017-08-25T08:04:17.250Z,11052
2017-08-25T08:05:16.915Z,10820
2017-08-25T08:06:17.565Z,10612
2017-08-25T08:07:17.225Z,10440
2017-08-25T08:08:17.245Z,10440
2017-08-25T08:09:16.895Z,10344
2017-08-25T08:10:17.230Z,10380
2017-08-25T08:11:17.593Z,10096
2017-08-25T08:12:17.572Z,9444
2017-08-25T08:13:17.245Z,8288
2017-08-25T08:14:16.894Z,7668
2017-08-25T08:15:16.904Z,8692
2017-08-25T08:16:16.897Z,9732
2017-08-25T08:17:17.549Z,10416
2017-08-25T08:18:17.224Z,11208
2017-08-25T08:19:17.577Z,11296
2017-08-25T08:20:17.902Z,11848
2017-08-25T08:21:16.910Z,11724
2017-08-25T08:22:17.889Z,11588
2017-08-25T08:23:17.569Z,11276
2017-08-25T08:24:17.560Z,11372
2017-08-25T08:25:17.225Z,11992
2017-08-25T08:26:17.251Z,11940
2017-08-25T08:27:17.223Z,12048
2017-08-25T08:28:17.237Z,11064
2017-08-25T08:29:16.907Z,10476
2017-08-25T08:30:17.555Z,10568
2017-08-25T08:31:17.222Z,9796
2017-08-25T08:32:17.627Z,9080
2017-08-25T08:33:17.235Z,8436
2017-08-25T08:34:17.226Z,7936
2017-08-25T08:35:17.224Z,7336
2017-08-25T08:36:16.898Z,7004
2017-08-25T08:37:16.898Z,7312
2017-08-25T08:38:16.897Z,8124
2017-08-25T08:39:16.912Z,7964
2017-08-25T08:40:17.241Z,7444
2017-08-25T08:41:17.567Z,7612
2017-08-25T08:42:17.242Z,6972
2017-08-25T08:43:16.915Z,6420
2017-08-25T08:44:16.901Z,6388
2017-08-25T08:45:17.568Z,6388
2017-08-25T08:46:17.269Z,6284
2017-08-25T08:47:17.890Z,6268
2017-08-25T08:48:16.896Z,6280
2017-08-25T08:49:16.895Z,6392
2017-08-25T08:50:17.242Z,6252
2017-08-25T08:51:17.257Z,6068
2017-08-25T08:52:17.555Z,5960
2017-08-25T08:53:16.901Z,6120
2017-08-25T08:54:17.560Z,6264
2017-08-25T08:55:17.248Z,6932
2017-08-25T08:56:16.913Z,6732
2017-08-25T08:57:16.915Z,6768
2017-08-25T08:58:17.246Z,6704
2017-08-25T08:59:17.557Z,6808
2017-08-25T09:00:17.223Z,6580
2017-08-25T09:01:16.894Z,6788
2017-08-25T09:02:17.224Z,6872
2017-08-25T09:03:17.231Z,6988
2017-08-25T09:04:17.570Z,6976
2017-08-25T09:05:16.895Z,6912
2017-08-25T09:06:17.234Z,7024
2017-08-25T09:07:17.244Z,7040
2017-08-25T09:08:17.246Z,6776
2017-08-25T09:09:17.551Z,7336
2017-08-25T09:10:17.248Z,7580
2017-08-25T09:11:16.903Z,7804
2017-08-25T09:12:17.247Z,7988
2017-08-25T09:13:17.259Z,8104
2017-08-25T09:14:17.264Z,7624
2017-08-25T09:15:16.895Z,7184
2017-08-25T09:16:17.225Z,6984
2017-08-25T09:17:16.901Z,6972
2017-08-25T09:18:17.228Z,7024
2017-08-25T09:19:17.550Z,6872
2017-08-25T09:20:17.227Z,7048
2017-08-25T09:21:16.914Z,7464
2017-08-25T09:22:17.578Z,8256
2017-08-25T09:23:17.251Z,8272
2017-08-25T09:24:17.241Z,8168
2017-08-25T09:25:17.105Z,7864
2017-08-25T09:26:16.901Z,8128
2017-08-25T09:27:16.906Z,8800
2017-08-25T09:28:17.228Z,9688
2017-08-25T09:29:17.232Z,10696
2017-08-25T09:30:16.930Z,11680
2017-08-25T09:31:17.252Z,12120
2017-08-25T09:32:17.250Z,11832
2017-08-25T09:33:17.597Z,11152
2017-08-25T09:34:17.255Z,11128
2017-08-25T09:35:16.926Z,11192
2017-08-25T09:36:17.253Z,11448
2017-08-25T09:37:17.259Z,12136
2017-08-25T09:38:17.260Z,12888
2017-08-25T09:39:17.244Z,13660
2017-08-25T09:40:17.246Z,14336
2017-08-25T09:41:17.583Z,14708
2017-08-25T09:42:17.588Z,15008
2017-08-25T09:43:17.247Z,14660
2017-08-25T09:44:17.247Z,14344
2017-08-25T09:45:17.629Z,14232
2017-08-25T09:46:17.267Z,14144
2017-08-25T09:47:17.586Z,13840
2017-08-25T09:48:17.255Z,12948
2017-08-25T09:49:16.927Z,12372
2017-08-25T09:50:17.607Z,11904
2017-08-25T09:51:17.257Z,10960
2017-08-25T09:52:17.274Z,10124
2017-08-25T09:53:17.589Z,10116
2017-08-25T09:54:16.963Z,9896
2017-08-25T09:55:17.288Z,10340
2017-08-25T09:56:17.266Z,10872
2017-08-25T09:57:16.938Z,11392
2017-08-25T09:58:16.939Z,11708
2017-08-25T09:59:17.941Z,12384
2017-08-25T10:00:17.296Z,13564
2017-08-25T10:01:17.294Z,13924
2017-08-25T10:02:17.278Z,14156
2017-08-25T10:03:16.964Z,14288
2017-08-25T10:04:17.280Z,13404
2017-08-25T10:05:17.283Z,12384
2017-08-25T10:06:17.328Z,11364
2017-08-25T10:07:16.955Z,10240
2017-08-25T10:08:17.300Z,8824
2017-08-25T10:09:16.966Z,8528
2017-08-25T10:10:16.971Z,8068
2017-08-25T10:11:17.326Z,8056
2017-08-25T10:12:17.961Z,8044
2017-08-25T10:13:17.190Z,8804
2017-08-25T10:14:16.989Z,9764
2017-08-25T10:15:16.976Z,9664
2017-08-25T10:16:17.640Z,9664
2017-08-25T10:17:17.640Z,9600
2017-08-25T10:18:17.009Z,9060
2017-08-25T10:19:17.309Z,8836
2017-08-25T10:20:17.315Z,9028
2017-08-25T10:21:17.647Z,8976
2017-08-25T10:22:17.361Z,8256
2017-08-25T10:23:16.984Z,8212
2017-08-25T10:24:17.318Z,8648
2017-08-25T10:25:17.666Z,9620
2017-08-25T10:26:17.652Z,11192
2017-08-25T10:27:17.016Z,11844
2017-08-25T10:28:17.658Z,11352
2017-08-25T10:29:17.019Z,9660
2017-08-25T10:30:17.329Z,8436
2017-08-25T10:31:17.015Z,7616
2017-08-25T10:32:17.359Z,7188
2017-08-25T10:33:17.360Z,7176
2017-08-25T10:34:17.010Z,7136
2017-08-25T10:35:17.029Z,7436
2017-08-25T10:36:17.017Z,7720
2017-08-25T10:37:17.024Z,8536
2017-08-25T10:38:17.018Z,9344
2017-08-25T10:39:17.030Z,9824
2017-08-25T10:40:17.678Z,10384
2017-08-25T10:41:17.690Z,9972
2017-08-25T10:42:17.370Z,8088
2017-08-25T10:43:18.029Z,6536
2017-08-25T10:44:17.382Z,6140
2017-08-25T10:45:17.034Z,6056
2017-08-25T10:46:17.701Z,6032
2017-08-25T10:47:17.375Z,5964
2017-08-25T10:48:17.034Z,6336
2017-08-25T10:49:17.380Z,6096
2017-08-25T10:50:17.729Z,5908
2017-08-25T10:51:17.390Z,6016
2017-08-25T10:52:17.056Z,6200
2017-08-25T10:53:18.030Z,6128
2017-08-25T10:54:17.379Z,6292
2017-08-25T10:55:17.723Z,6656
2017-08-25T10:56:17.051Z,6740
2017-08-25T10:57:17.051Z,6660
2017-08-25T10:58:17.401Z,7288
2017-08-25T10:59:17.410Z,7948
2017-08-25T11:00:17.053Z,8444
2017-08-25T11:01:17.717Z,8788
2017-08-25T11:02:17.059Z,8616
2017-08-25T11:03:17.067Z,7956
2017-08-25T11:04:17.391Z,7176
2017-08-25T11:05:17.421Z,6336
2017-08-25T11:06:17.065Z,5596
2017-08-25T11:07:18.051Z,5172
2017-08-25T11:08:17.410Z,5408
2017-08-25T11:09:17.071Z,5192
2017-08-25T11:10:17.071Z,5012
2017-08-25T11:11:17.428Z,4860
2017-08-25T11:12:17.073Z,4744
2017-08-25T11:13:17.078Z,5136
2017-08-25T11:14:18.064Z,5364
2017-08-25T11:15:17.079Z,5944
2017-08-25T11:16:17.407Z,5476
2017-08-25T11:17:17.080Z,6060
2017-08-25T11:18:17.419Z,5816
2017-08-25T11:19:17.089Z,6380
2017-08-25T11:20:17.177Z,6648
2017-08-25T11:21:17.087Z,6316
2017-08-25T11:22:17.742Z,6540
2017-08-25T11:23:17.754Z,6340
2017-08-25T11:24:17.747Z,6512
2017-08-25T11:25:17.428Z,6200
2017-08-25T11:26:17.420Z,5960
2017-08-25T11:27:17.096Z,6060
2017-08-25T11:28:17.094Z,5964
2017-08-25T11:29:17.112Z,5488
2017-08-25T11:30:17.432Z,5436
2017-08-25T11:31:17.430Z,5268
2017-08-25T11:32:18.082Z,5344
2017-08-25T11:33:17.101Z,5484
2017-08-25T11:34:18.090Z,5408
2017-08-25T11:35:17.765Z,5372
2017-08-25T11:36:17.774Z,5556
2017-08-25T11:37:17.438Z,5608
2017-08-25T11:38:17.767Z,5088
2017-08-25T11:39:17.444Z,4964
2017-08-25T11:40:17.784Z,4968
2017-08-25T11:41:17.115Z,4984
2017-08-25T11:42:17.446Z,5056
2017-08-25T11:43:17.114Z,5000
2017-08-25T11:44:17.794Z,5068
2017-08-25T11:45:17.463Z,5160
2017-08-25T11:46:17.790Z,5280
2017-08-25T11:47:17.797Z,5364
2017-08-25T11:48:17.456Z,5424
2017-08-25T11:49:17.451Z,5508
2017-08-25T11:50:17.146Z,5528
2017-08-25T11:51:17.787Z,5488
2017-08-25T11:52:17.781Z,5400
2017-08-25T11:53:17.478Z,5384
2017-08-25T11:54:17.462Z,5404
2017-08-25T11:55:17.135Z,5304
2017-08-25T11:56:17.486Z,5336
2017-08-25T11:57:17.795Z,5408
2017-08-25T11:58:17.464Z,5472
2017-08-25T11:59:17.812Z,5564
2017-08-25T12:00:17.141Z,5632
2017-08-25T12:01:17.145Z,5632
2017-08-25T12:02:17.503Z,5392
2017-08-25T12:03:17.502Z,5208
2017-08-25T12:04:17.489Z,5512
2017-08-25T12:05:17.154Z,6112
2017-08-25T12:06:17.150Z,6148
2017-08-25T12:07:17.483Z,5916
2017-08-25T12:08:17.481Z,5848
2017-08-25T12:09:17.495Z,5464
2017-08-25T12:10:17.819Z,5640
2017-08-25T12:11:17.855Z,5656
2017-08-25T12:12:17.820Z,5408
2017-08-25T12:13:17.822Z,5276
2017-08-25T12:14:17.816Z,5332
2017-08-25T12:15:17.818Z,5412
2017-08-25T12:16:17.821Z,5416
2017-08-25T12:17:17.852Z,5172
2017-08-25T12:18:18.176Z,5140
2017-08-25T12:19:17.168Z,5120
2017-08-25T12:20:17.532Z,5064
2017-08-25T12:21:17.517Z,5144
2017-08-25T12:22:18.159Z,5072
2017-08-25T12:23:17.834Z,4988
2017-08-25T12:24:17.176Z,4868
2017-08-25T12:25:17.524Z,4800
2017-08-25T12:26:17.853Z,4840
2017-08-25T12:27:17.200Z,4820
2017-08-25T12:28:17.182Z,4904
2017-08-25T12:29:17.510Z,4940
2017-08-25T12:30:17.871Z,4992
2017-08-25T12:31:17.208Z,4992
2017-08-25T12:32:17.524Z,4892
2017-08-25T12:33:17.852Z,4928
2017-08-25T12:34:17.197Z,5068
2017-08-25T12:35:17.554Z,5176
2017-08-25T12:36:17.198Z,5128
2017-08-25T12:37:17.526Z,5060
2017-08-25T12:38:17.855Z,4952
2017-08-25T12:39:17.856Z,4780
2017-08-25T12:40:17.202Z,4624
2017-08-25T12:41:17.530Z,4672
2017-08-25T12:42:17.254Z,4656
2017-08-25T12:43:17.534Z,4620
2017-08-25T12:44:17.537Z,4680
2017-08-25T12:45:17.229Z,4704
2017-08-25T12:46:17.545Z,4688
2017-08-25T12:47:17.550Z,4724
2017-08-25T12:48:17.543Z,4836
2017-08-25T12:49:17.559Z,4956
2017-08-25T12:50:17.239Z,5048
2017-08-25T12:51:17.558Z,5116
2017-08-25T12:52:17.553Z,5144
2017-08-25T12:53:17.565Z,5120
2017-08-25T12:54:17.881Z,5048
2017-08-25T12:55:18.255Z,4972
2017-08-25T12:56:17.230Z,5064
2017-08-25T12:57:17.890Z,5156
2017-08-25T12:58:17.561Z,5188
2017-08-25T12:59:17.905Z,5212
2017-08-25T13:00:17.241Z,5208
2017-08-25T13:01:17.242Z,5204
2017-08-25T13:02:17.241Z,5112
2017-08-25T13:03:17.941Z,4988
2017-08-25T13:04:17.900Z,5136
2017-08-25T13:05:17.246Z,5160
2017-08-25T13:06:17.248Z,5148
2017-08-25T13:07:17.936Z,5124
2017-08-25T13:08:17.583Z,5056
2017-08-25T13:09:17.930Z,5088
2017-08-25T13:10:17.255Z,5028
2017-08-25T13:11:17.262Z,5052
2017-08-25T13:12:17.923Z,5332
2017-08-25T13:13:17.642Z,5448
2017-08-25T13:14:18.259Z,5232
2017-08-25T13:15:17.937Z,5272
2017-08-25T13:16:17.267Z,5292
2017-08-25T13:17:17.267Z,5276
2017-08-25T13:18:17.599Z,5268
2017-08-25T13:19:17.271Z,5264
2017-08-25T13:20:17.278Z,5264
2017-08-25T13:21:17.604Z,5236
2017-08-25T13:22:18.298Z,5172
2017-08-25T13:23:17.955Z,5104
2017-08-25T13:24:17.746Z,5052
2017-08-25T13:25:17.625Z,5024
2017-08-25T13:26:17.289Z,4972
2017-08-25T13:27:17.285Z,4964
2017-08-25T13:28:17.291Z,4952
2017-08-25T13:29:17.638Z,4892
2017-08-25T13:30:17.309Z,4848
2017-08-25T13:31:17.310Z,4828
2017-08-25T13:32:17.963Z,4808
2017-08-25T13:33:17.629Z,4792
2017-08-25T13:34:17.981Z,4752
2017-08-25T13:35:17.637Z,4784
2017-08-25T13:36:17.633Z,4748
2017-08-25T13:37:17.636Z,4760
2017-08-25T13:38:17.972Z,4792
2017-08-25T13:39:17.662Z,4792
2017-08-25T13:40:17.334Z,4676